Time;durP1;ratioP1;P1;durP2;ratioP2;P2;SDS_P1;SDS_P2;PMS_P1;PMS_P2;Temp;Humidity;BMP_temperature;BMP_pressure;BME280_temperature;BME280_humidity;BME280_pressure;Samples;Min_cycle;Max_cycle;Signal;HPM_P1;HPM_P2
2023/08/23 00:00:09;;;;;;;10.50;5.60;;;15.70;99.90;;;;;;5078858;28;20463;-57
2023/08/23 00:02:36;;;;;;;7.73;6.00;;;15.70;99.90;;;;;;5078928;28;20744;-58
2023/08/23 00:05:03;;;;;;;9.97;5.77;;;15.60;99.90;;;;;;5078303;28;20468;-58
2023/08/23 00:07:31;;;;;;;8.50;5.97;;;15.60;99.90;;;;;;5078187;28;20465;-58
2023/08/23 00:09:58;;;;;;;9.93;6.40;;;15.60;99.90;;;;;;5077646;28;20511;-58
2023/08/23 00:12:25;;;;;;;8.47;5.80;;;15.60;99.90;;;;;;5078546;28;20587;-58
2023/08/23 00:14:52;;;;;;;10.50;6.60;;;15.60;99.90;;;;;;5078502;28;20457;-59
2023/08/23 00:17:21;;;;;;;7.70;5.60;;;15.50;99.90;;;;;;5078294;28;20468;-58
2023/08/23 00:19:48;;;;;;;7.83;6.40;;;15.50;99.90;;;;;;5078407;28;20547;-58
2023/08/23 00:22:15;;;;;;;6.53;5.87;;;15.50;99.90;;;;;;5077704;28;20462;-58
2023/08/23 00:24:42;;;;;;;9.50;5.87;;;15.50;99.90;;;;;;5078135;28;20929;-58
2023/08/23 00:27:10;;;;;;;8.20;6.10;;;15.50;99.90;;;;;;5077419;28;20465;-58
2023/08/23 00:29:37;;;;;;;10.30;7.20;;;15.50;99.90;;;;;;5077877;28;20496;-58
2023/08/23 00:32:05;;;;;;;8.33;6.17;;;15.30;99.90;;;;;;5078253;28;20457;-57
2023/08/23 00:34:34;;;;;;;8.03;5.77;;;15.20;1.00;;;;;;5077425;28;20523;-58
2023/08/23 00:37:01;;;;;;;10.80;6.60;;;15.20;1.00;;;;;;5077121;28;20504;-58
2023/08/23 00:39:28;;;;;;;7.37;6.20;;;15.20;99.90;;;;;;5077276;28;20552;-58
2023/08/23 00:41:55;;;;;;;6.17;5.60;;;15.20;99.90;;;;;;5077843;28;20483;-58
2023/08/23 00:44:22;;;;;;;8.57;6.20;;;15.20;99.90;;;;;;5078164;28;20648;-58
2023/08/23 00:46:49;;;;;;;6.67;6.07;;;15.20;99.90;;;;;;5076919;28;20464;-58
2023/08/23 00:49:17;;;;;;;6.33;5.83;;;15.20;99.90;;;;;;5077433;28;20532;-57
2023/08/23 00:51:45;;;;;;;10.40;6.60;;;15.20;99.90;;;;;;5076784;28;20499;-58
2023/08/23 00:54:13;;;;;;;8.33;6.20;;;15.20;99.90;;;;;;5077670;28;20552;-58
2023/08/23 00:56:40;;;;;;;13.47;7.40;;;15.20;99.90;;;;;;5077256;28;20495;-58
2023/08/23 00:59:09;;;;;;;6.70;5.83;;;15.20;99.90;;;;;;5076871;28;20553;-58
2023/08/23 01:01:36;;;;;;;7.00;6.33;;;15.20;99.90;;;;;;5077244;28;20497;-58
2023/08/23 01:04:04;;;;;;;7.23;6.07;;;15.20;99.90;;;;;;5077440;28;20468;-58
2023/08/23 01:06:45;;;;;;;8.07;6.07;;;15.20;99.90;;;;;;5077746;28;20496;-58
2023/08/23 01:09:23;;;;;;;13.20;5.87;;;15.10;99.90;;;;;;5077078;28;20538;-59
2023/08/23 01:12:01;;;;;;;6.83;6.13;;;15.00;99.90;;;;;;5076686;28;20511;-59
2023/08/23 01:14:39;;;;;;;7.70;6.43;;;15.00;99.90;;;;;;5077657;28;20463;-57
2023/08/23 01:17:09;;;;;;;7.90;6.07;;;15.00;1.00;;;;;;5076977;28;20464;-58
2023/08/23 01:19:44;;;;;;;9.87;6.17;;;14.90;1.00;;;;;;5077197;28;20453;-58
2023/08/23 01:22:14;;;;;;;6.93;6.17;;;14.80;1.00;;;;;;5076462;28;20464;-58
2023/08/23 01:24:43;;;;;;;7.60;6.80;;;14.80;1.00;;;;;;5077240;28;20464;-58
2023/08/23 01:27:10;;;;;;;7.97;5.90;;;14.70;1.00;;;;;;5076321;28;20560;-59
2023/08/23 01:29:38;;;;;;;9.00;6.03;;;14.60;1.00;;;;;;5076843;28;20582;-59
2023/08/23 01:32:26;;;;;;;10.70;7.07;;;14.60;1.00;;;;;;5077201;28;20944;-58
2023/08/23 01:34:57;;;;;;;7.33;6.20;;;14.60;1.00;;;;;;5076801;28;20926;-58
2023/08/23 01:37:26;;;;;;;9.13;7.27;;;14.60;3.70;;;;;;5076280;28;20464;-59
2023/08/23 01:39:55;;;;;;;9.90;6.17;;;14.60;1.00;;;;;;5075838;28;20464;-58
2023/08/23 01:42:23;;;;;;;9.53;7.20;;;14.70;1.00;;;;;;5076374;28;20463;-59
2023/08/23 01:44:51;;;;;;;8.73;5.80;;;14.70;1.00;;;;;;5076765;28;20818;-59
2023/08/23 01:47:19;;;;;;;7.40;6.10;;;14.70;1.00;;;;;;5077053;28;20488;-60
2023/08/23 01:49:46;;;;;;;9.00;6.93;;;14.70;1.00;;;;;;5075956;28;20485;-59
2023/08/23 01:52:13;;;;;;;7.03;6.33;;;14.60;56.70;;;;;;5076733;28;20827;-58
2023/08/23 01:54:40;;;;;;;8.33;6.80;;;14.60;99.90;;;;;;5077084;28;20934;-58
2023/08/23 01:57:09;;;;;;;6.93;6.30;;;14.50;99.90;;;;;;5076637;28;20540;-58
2023/08/23 01:59:37;;;;;;;7.07;6.40;;;14.50;99.90;;;;;;5076136;28;20490;-58
2023/08/23 02:02:05;;;;;;;10.67;6.40;;;14.50;99.90;;;;;;5076431;28;20467;-59
2023/08/23 02:04:32;;;;;;;8.93;7.60;;;14.50;99.90;;;;;;5078858;28;20488;-58
2023/08/23 02:06:59;;;;;;;8.87;7.97;;;14.40;99.90;;;;;;5080515;28;20468;-58
2023/08/23 02:09:26;;;;;;;7.43;6.57;;;14.40;99.90;;;;;;5080869;28;20497;-58
2023/08/23 02:11:54;;;;;;;9.87;7.50;;;14.40;99.90;;;;;;5080058;28;20953;-59
2023/08/23 02:14:22;;;;;;;11.57;6.80;;;14.30;1.00;;;;;;5080536;28;20797;-59
2023/08/23 02:16:49;;;;;;;8.73;6.80;;;14.30;99.90;;;;;;5080380;28;20649;-59
2023/08/23 02:19:17;;;;;;;9.80;7.13;;;14.30;99.90;;;;;;5080734;28;20461;-59
2023/08/23 02:21:44;;;;;;;11.87;6.90;;;14.30;99.90;;;;;;5080370;28;20457;-58
2023/08/23 02:24:11;;;;;;;7.23;6.40;;;14.30;99.90;;;;;;5079676;28;20833;-59
2023/08/23 02:26:38;;;;;;;10.00;7.10;;;14.30;99.90;;;;;;5080636;28;20472;-59
2023/08/23 02:29:05;;;;;;;9.33;7.13;;;14.30;99.90;;;;;;5080181;28;20591;-59
2023/08/23 02:31:34;;;;;;;8.17;7.07;;;14.30;61.10;;;;;;5080308;28;20483;-58
2023/08/23 02:34:01;;;;;;;8.73;7.83;;;14.30;99.90;;;;;;5079934;28;20493;-59
2023/08/23 02:36:29;;;;;;;8.80;7.67;;;14.30;1.00;;;;;;5079855;28;20575;-59
2023/08/23 02:38:56;;;;;;;8.30;7.40;;;14.20;69.10;;;;;;5080018;28;20543;-58
2023/08/23 02:41:23;;;;;;;8.13;6.70;;;14.20;99.90;;;;;;5079749;28;20901;-58
2023/08/23 02:43:50;;;;;;;7.60;6.90;;;14.20;99.90;;;;;;5079512;28;20463;-58
2023/08/23 02:46:18;;;;;;;11.00;6.50;;;14.20;99.90;;;;;;5080414;28;20481;-58
2023/08/23 02:48:52;;;;;;;10.50;7.20;;;14.20;99.90;;;;;;5080194;28;20553;-58
2023/08/23 02:51:19;;;;;;;11.93;7.87;;;14.10;99.90;;;;;;5079069;28;20472;-58
2023/08/23 02:53:46;;;;;;;9.20;7.57;;;14.10;44.30;;;;;;5079544;28;20898;-59
2023/08/23 02:56:14;;;;;;;9.13;7.90;;;14.20;32.50;;;;;;5079434;28;20859;-59
2023/08/23 02:58:41;;;;;;;8.20;6.53;;;14.20;1.00;;;;;;5080126;28;20500;-58
2023/08/23 03:01:08;;;;;;;9.83;8.83;;;14.20;1.00;;;;;;5080170;28;20457;-59
2023/08/23 03:03:36;;;;;;;13.30;9.43;;;14.20;1.00;;;;;;5079718;28;20464;-59
2023/08/23 03:06:04;;;;;;;9.87;8.83;;;14.20;1.00;;;;;;5080003;28;20866;-58
2023/08/23 03:08:32;;;;;;;10.00;8.97;;;14.10;1.00;;;;;;5080228;28;20463;-59
2023/08/23 03:11:03;;;;;;;10.20;9.20;;;14.10;1.00;;;;;;5078231;28;20585;-59
2023/08/23 03:13:31;;;;;;;11.37;8.40;;;14.00;1.00;;;;;;5078907;28;20472;-58
2023/08/23 03:15:58;;;;;;;9.60;8.53;;;14.00;1.00;;;;;;5078143;28;20913;-59
2023/08/23 03:18:26;;;;;;;9.63;8.27;;;14.10;1.00;;;;;;5078880;28;20540;-59
2023/08/23 03:20:53;;;;;;;10.40;8.77;;;14.10;1.00;;;;;;5079489;28;20454;-58
2023/08/23 03:23:22;;;;;;;12.20;8.53;;;14.10;1.00;;;;;;5079079;28;20556;-59
2023/08/23 03:25:50;;;;;;;9.30;8.33;;;14.00;99.90;;;;;;5079473;28;20467;-59
2023/08/23 03:28:18;;;;;;;10.87;8.90;;;14.00;99.90;;;;;;5079602;28;20461;-59
2023/08/23 03:30:45;;;;;;;9.77;7.87;;;13.90;99.90;;;;;;5077777;28;20488;-59
2023/08/23 03:33:12;;;;;;;11.33;7.67;;;14.00;99.90;;;;;;5078959;28;20497;-58
2023/08/23 03:35:40;;;;;;;8.67;7.40;;;13.90;99.90;;;;;;5078621;28;20504;-59
2023/08/23 03:38:07;;;;;;;7.90;6.83;;;13.90;99.90;;;;;;5079348;28;20500;-58
2023/08/23 03:40:39;;;;;;;11.90;7.53;;;13.90;99.90;;;;;;5078665;28;20933;-58
2023/08/23 03:43:07;;;;;;;7.90;7.10;;;13.90;99.90;;;;;;5078799;28;20516;-58
2023/08/23 03:45:35;;;;;;;9.50;7.70;;;13.90;99.90;;;;;;5079489;28;20536;-59
2023/08/23 03:48:02;;;;;;;10.20;6.83;;;13.90;1.00;;;;;;5078989;28;20480;-58
2023/08/23 03:50:29;;;;;;;8.60;7.57;;;13.80;99.90;;;;;;5079014;28;20493;-58
2023/08/23 03:52:57;;;;;;;9.37;8.00;;;13.80;1.00;;;;;;5077929;28;20461;-58
2023/08/23 03:55:24;;;;;;;8.27;7.43;;;13.70;1.00;;;;;;5078532;28;20466;-59
2023/08/23 03:57:52;;;;;;;10.77;8.10;;;13.60;1.00;;;;;;5078583;28;20479;-59
2023/08/23 04:00:20;;;;;;;8.13;6.73;;;13.60;1.00;;;;;;5078985;28;20560;-59
2023/08/23 04:02:48;;;;;;;8.60;7.40;;;13.60;44.10;;;;;;5078355;28;20449;-58
2023/08/23 04:05:15;;;;;;;8.47;7.63;;;13.50;99.90;;;;;;5077678;28;20833;-58
2023/08/23 04:07:42;;;;;;;8.60;7.70;;;13.60;1.00;;;;;;5078403;28;20461;-59
2023/08/23 04:10:10;;;;;;;7.63;6.93;;;13.60;99.90;;;;;;5078224;28;20528;-59
2023/08/23 04:12:37;;;;;;;8.07;7.27;;;13.60;99.90;;;;;;5078664;28;20500;-59
2023/08/23 04:15:07;;;;;;;13.37;8.40;;;13.70;99.90;;;;;;5077163;28;20466;-59
2023/08/23 04:17:34;;;;;;;9.27;8.37;;;13.70;99.90;;;;;;5073186;28;20465;-59
2023/08/23 04:20:02;;;;;;;11.40;7.83;;;13.60;99.90;;;;;;5077700;28;20831;-59
2023/08/23 04:22:30;;;;;;;11.50;9.40;;;13.60;99.90;;;;;;5078128;28;20749;-59
2023/08/23 04:24:57;;;;;;;10.20;6.57;;;13.50;1.00;;;;;;5077596;28;20493;-58
2023/08/23 04:27:25;;;;;;;8.97;8.07;;;13.50;1.00;;;;;;5076693;28;20458;-59
2023/08/23 04:29:52;;;;;;;8.73;7.87;;;13.60;1.00;;;;;;5077744;28;20823;-59
2023/08/23 04:32:21;;;;;;;9.73;7.23;;;13.50;1.00;;;;;;5077754;28;20563;-59
2023/08/23 04:34:48;;;;;;;11.47;8.33;;;13.50;99.90;;;;;;5076985;28;20499;-59
2023/08/23 04:37:15;;;;;;;10.00;7.90;;;13.50;99.90;;;;;;5077674;28;20512;-58
2023/08/23 04:39:42;;;;;;;10.07;7.03;;;13.50;99.90;;;;;;5076615;28;20508;-59
2023/08/23 04:42:10;;;;;;;10.73;8.27;;;13.50;1.00;;;;;;5077526;28;20893;-59
2023/08/23 04:44:37;;;;;;;12.30;8.77;;;13.50;1.00;;;;;;5077591;28;20457;-59
2023/08/23 04:47:04;;;;;;;10.10;8.30;;;13.50;1.00;;;;;;5077251;28;20458;-59
2023/08/23 04:49:33;;;;;;;9.20;7.97;;;13.50;1.00;;;;;;5076641;28;20586;-60
2023/08/23 04:52:00;;;;;;;14.90;7.17;;;13.50;1.00;;;;;;5077204;28;20493;-59
2023/08/23 04:54:27;;;;;;;11.70;8.33;;;13.50;1.00;;;;;;5077521;28;20556;-59
2023/08/23 04:56:54;;;;;;;8.50;6.90;;;13.50;1.00;;;;;;5077304;28;20545;-59
2023/08/23 04:59:21;;;;;;;9.80;8.50;;;13.50;1.00;;;;;;5077503;28;20457;-59
2023/08/23 05:01:49;;;;;;;15.30;9.10;;;13.50;1.00;;;;;;5076794;28;20497;-58
2023/08/23 05:04:17;;;;;;;9.47;8.07;;;13.50;1.00;;;;;;5077463;28;20764;-58
2023/08/23 05:06:47;;;;;;;8.90;8.00;;;13.60;1.00;;;;;;5077400;28;20489;-59
2023/08/23 05:09:14;;;;;;;9.30;7.90;;;13.60;1.00;;;;;;5076836;28;20548;-59
2023/08/23 05:11:41;;;;;;;9.00;8.00;;;13.60;99.90;;;;;;5076619;28;20536;-59
2023/08/23 05:14:08;;;;;;;11.73;9.43;;;13.60;1.00;;;;;;5076775;28;20500;-59
2023/08/23 05:16:35;;;;;;;9.70;7.70;;;13.60;1.00;;;;;;5077098;28;20519;-58
2023/08/23 05:19:03;;;;;;;12.80;8.87;;;13.70;1.00;;;;;;5076979;28;20461;-58
2023/08/23 05:21:30;;;;;;;8.83;7.77;;;13.70;1.00;;;;;;5077034;28;20578;-58
2023/08/23 05:23:58;;;;;;;9.90;8.30;;;13.80;99.90;;;;;;5076205;28;20465;-59
2023/08/23 05:26:26;;;;;;;9.73;7.80;;;13.90;99.90;;;;;;5076712;28;20465;-59
2023/08/23 05:28:53;;;;;;;9.80;7.50;;;13.90;99.90;;;;;;5076686;28;20886;-58
2023/08/23 05:31:20;;;;;;;11.63;8.70;;;14.00;99.90;;;;;;5077240;28;21068;-59
2023/08/23 05:33:47;;;;;;;9.37;7.23;;;14.00;99.90;;;;;;5075903;28;20547;-59
2023/08/23 05:36:14;;;;;;;8.73;7.83;;;14.10;99.90;;;;;;5077161;28;20564;-60
2023/08/23 05:38:44;;;;;;;13.40;8.03;;;14.20;99.90;;;;;;5075658;28;20468;-59
2023/08/23 05:41:13;;;;;;;13.17;9.00;;;14.20;99.90;;;;;;5076400;28;20449;-59
2023/08/23 05:43:40;;;;;;;12.03;8.47;;;14.30;99.90;;;;;;5075755;28;20572;-59
2023/08/23 05:46:07;;;;;;;11.30;9.13;;;14.40;98.80;;;;;;5076611;28;20948;-59
2023/08/23 05:48:35;;;;;;;11.20;8.40;;;14.50;99.90;;;;;;5077300;28;20460;-59
2023/08/23 05:51:03;;;;;;;11.40;8.50;;;14.60;99.90;;;;;;5076440;28;20493;-58
2023/08/23 05:53:30;;;;;;;9.97;8.60;;;14.70;1.00;;;;;;5076952;28;20920;-62
2023/08/23 05:55:58;;;;;;;11.33;8.90;;;14.80;1.00;;;;;;5076084;28;20504;-62
2023/08/23 05:58:26;;;;;;;11.47;9.50;;;14.90;99.90;;;;;;5071639;28;20491;-61
2023/08/23 06:00:55;;;;;;;10.40;8.03;;;15.00;99.90;;;;;;5076304;28;20477;-61
2023/08/23 06:03:22;;;;;;;10.50;9.50;;;15.10;26.30;;;;;;5076662;28;20457;-61
2023/08/23 06:05:54;;;;;;;9.93;8.90;;;15.40;99.90;;;;;;5074531;28;22166;-61
2023/08/23 06:08:21;;;;;;;13.53;8.40;;;15.60;47.20;;;;;;5070452;28;20560;-61
2023/08/23 06:10:49;;;;;;;8.87;7.97;;;15.60;1.00;;;;;;5076408;28;20580;-61
2023/08/23 06:13:16;;;;;;;10.57;9.33;;;15.60;1.00;;;;;;5074021;28;20572;-61
2023/08/23 06:15:45;;;;;;;13.10;9.00;;;15.70;99.90;;;;;;5074108;28;20496;-62
2023/08/23 06:18:12;;;;;;;12.37;9.10;;;15.70;99.90;;;;;;5076582;28;20878;-61
2023/08/23 06:20:39;;;;;;;13.80;10.77;;;15.80;42.60;;;;;;5075778;28;20578;-61
2023/08/23 06:23:07;;;;;;;13.33;9.80;;;15.90;1.00;;;;;;5075152;28;20564;-62
2023/08/23 06:25:34;;;;;;;10.50;9.20;;;16.00;1.00;;;;;;5074536;28;20840;-61
2023/08/23 06:28:01;;;;;;;12.43;9.63;;;16.10;99.90;;;;;;5076238;28;20457;-62
2023/08/23 06:30:28;;;;;;;10.73;9.33;;;16.20;1.00;;;;;;5076446;28;20489;-62
2023/08/23 06:32:57;;;;;;;14.43;10.60;;;16.30;99.90;;;;;;5075916;28;20458;-62
2023/08/23 06:35:26;;;;;;;11.47;9.33;;;16.60;99.90;;;;;;5055519;28;20458;-62
2023/08/23 06:37:53;;;;;;;10.20;9.20;;;16.80;99.90;;;;;;5055373;28;20552;-62
2023/08/23 06:40:20;;;;;;;11.40;9.80;;;17.00;1.00;;;;;;5054653;28;20458;-62
2023/08/23 06:42:48;;;;;;;11.63;10.53;;;17.30;99.90;;;;;;5054550;28;20486;-63
2023/08/23 06:45:15;;;;;;;11.30;10.07;;;17.50;99.90;;;;;;5055207;28;20516;-62
2023/08/23 06:47:42;;;;;;;10.80;9.80;;;17.80;83.20;;;;;;5054564;28;20462;-62
2023/08/23 06:50:11;;;;;;;10.93;9.20;;;18.00;99.90;;;;;;5052835;28;20805;-62
2023/08/23 06:52:39;;;;;;;10.00;8.77;;;18.00;99.90;;;;;;5057406;28;20468;-62
2023/08/23 06:55:07;;;;;;;10.90;9.00;;;18.00;99.90;;;;;;5056800;28;20926;-62
2023/08/23 06:57:34;;;;;;;12.40;10.27;;;18.00;99.90;;;;;;5058009;28;20901;-62
2023/08/23 07:00:02;;;;;;;12.40;9.40;;;18.20;99.90;;;;;;5057901;28;20457;-63
2023/08/23 07:02:29;;;;;;;10.60;9.60;;;18.30;42.80;;;;;;5058841;28;20512;-62
2023/08/23 07:04:56;;;;;;;12.90;9.33;;;18.70;99.90;;;;;;5057628;28;20544;-63
2023/08/23 07:07:25;;;;;;;10.20;9.20;;;18.90;99.90;;;;;;5056222;28;20561;-63
2023/08/23 07:09:52;;;;;;;12.10;10.53;;;19.20;1.00;;;;;;5058032;28;20473;-62
2023/08/23 07:12:20;;;;;;;12.17;10.17;;;19.20;1.00;;;;;;5059360;28;20458;-63
2023/08/23 07:14:49;;;;;;;12.70;9.80;;;19.30;99.90;;;;;;5058961;28;20454;-63
2023/08/23 07:17:17;;;;;;;12.73;9.80;;;19.20;99.90;;;;;;5057910;28;20867;-63
2023/08/23 07:19:44;;;;;;;10.57;9.27;;;19.20;1.00;;;;;;5057233;28;20953;-63
2023/08/23 07:22:12;;;;;;;11.00;9.90;;;19.50;99.90;;;;;;5057988;28;20469;-63
2023/08/23 07:24:40;;;;;;;11.80;9.87;;;19.80;1.00;;;;;;5057484;28;20469;-63
2023/08/23 07:27:08;;;;;;;12.70;9.40;;;20.10;1.00;;;;;;5057036;28;20462;-63
2023/08/23 07:29:37;;;;;;;11.80;10.67;;;20.20;99.90;;;;;;5055829;28;20533;-63
2023/08/23 07:32:05;;;;;;;10.87;9.83;;;20.80;1.00;;;;;;5057986;28;20795;-63
2023/08/23 07:34:33;;;;;;;11.03;9.53;;;21.10;1.00;;;;;;5071219;28;21268;-63
2023/08/23 07:37:00;;;;;;;12.23;10.23;;;21.20;99.90;;;;;;5078829;28;20937;-63
2023/08/23 07:39:27;;;;;;;13.60;10.10;;;21.50;99.90;;;;;;5078770;28;20515;-63
2023/08/23 07:41:56;;;;;;;12.33;9.93;;;21.60;99.90;;;;;;5078907;28;20739;-63
2023/08/23 07:44:24;;;;;;;11.57;10.30;;;21.70;53.80;;;;;;5078030;28;20500;-63
2023/08/23 07:46:51;;;;;;;11.60;10.40;;;22.00;99.90;;;;;;5077491;28;20750;-63
2023/08/23 07:49:18;;;;;;;11.50;9.60;;;22.50;99.90;;;;;;5076611;28;20456;-62
2023/08/23 07:51:48;;;;;;;10.90;9.80;;;22.70;99.60;;;;;;5076677;28;20582;-63
2023/08/23 07:54:15;;;;;;;9.60;8.70;;;23.00;99.90;;;;;;5078601;28;20875;-62
2023/08/23 07:56:42;;;;;;;9.40;8.43;;;23.20;63.00;;;;;;5078322;28;20754;-63
2023/08/23 07:59:11;;;;;;;9.00;8.10;;;23.60;4.10;;;;;;5078526;28;20552;-63
2023/08/23 08:01:38;;;;;;;13.37;8.10;;;23.80;1.00;;;;;;5077354;28;20472;-63
2023/08/23 08:04:06;;;;;;;12.03;7.70;;;24.00;77.00;;;;;;5077701;28;20460;-63
2023/08/23 08:06:33;;;;;;;11.07;7.40;;;24.30;50.40;;;;;;5076229;28;20530;-62
2023/08/23 08:09:00;;;;;;;7.77;6.43;;;24.20;99.90;;;;;;5076350;28;20981;-62
2023/08/23 08:11:28;;;;;;;7.80;6.23;;;24.40;99.90;;;;;;5076482;28;20495;-62
2023/08/23 08:13:55;;;;;;;7.40;6.80;;;24.50;99.90;;;;;;5077264;28;20492;-63
2023/08/23 08:16:24;;;;;;;8.73;6.40;;;24.70;99.90;;;;;;5074647;28;20500;-63
2023/08/23 08:18:51;;;;;;;7.83;7.10;;;24.90;99.90;;;;;;5075883;28;20465;-62
2023/08/23 08:21:19;;;;;;;5.77;4.53;;;25.00;99.90;;;;;;5075942;28;20833;-63
2023/08/23 08:23:47;;;;;;;8.53;5.40;;;25.40;1.00;;;;;;5076640;28;20493;-62
2023/08/23 08:26:16;;;;;;;7.20;5.33;;;25.80;1.00;;;;;;5076690;28;20461;-62
2023/08/23 08:28:45;;;;;;;5.67;5.17;;;25.40;1.00;;;;;;5075166;28;20476;-63
2023/08/23 08:31:14;;;;;;;7.67;5.63;;;25.60;65.50;;;;;;5075952;28;20492;-63
2023/08/23 08:33:43;;;;;;;7.57;4.87;;;25.70;99.90;;;;;;5076197;28;20786;-63
2023/08/23 08:36:12;;;;;;;5.80;5.30;;;25.90;99.90;;;;;;5077799;28;20515;-63
2023/08/23 08:38:39;;;;;;;6.80;5.33;;;26.20;1.00;;;;;;5077272;28;20705;-63
2023/08/23 08:41:08;;;;;;;5.83;5.20;;;26.40;99.90;;;;;;5077083;28;20461;-63
2023/08/23 08:43:36;;;;;;;8.70;4.30;;;26.50;99.90;;;;;;5078012;28;20480;-63
2023/08/23 08:46:06;;;;;;;8.37;5.03;;;26.80;1.00;;;;;;5077451;28;20758;-61
2023/08/23 08:48:34;;;;;;;7.43;4.17;;;27.10;1.00;;;;;;5076932;28;20929;-61
2023/08/23 08:51:04;;;;;;;5.17;3.70;;;26.90;1.00;;;;;;5077344;28;20938;-61
2023/08/23 08:53:33;;;;;;;5.53;2.87;;;27.20;1.00;;;;;;5077101;28;20468;-61
2023/08/23 08:56:01;;;;;;;3.40;3.10;;;27.30;1.00;;;;;;5077669;28;20464;-60
2023/08/23 08:58:30;;;;;;;4.03;3.50;;;26.40;5.20;;;;;;5076944;28;20485;-61
2023/08/23 09:01:02;;;;;;;5.67;3.17;;;26.30;31.60;;;;;;5076555;28;20467;-61
2023/08/23 09:03:30;;;;;;;4.70;3.67;;;26.50;1.00;;;;;;5075896;28;20477;-60
2023/08/23 09:05:58;;;;;;;8.50;3.80;;;26.70;1.00;;;;;;5075402;28;20473;-59
2023/08/23 09:08:27;;;;;;;6.67;3.33;;;26.70;1.00;;;;;;5076387;28;20473;-60
2023/08/23 09:10:55;;;;;;;3.80;3.47;;;26.80;1.00;;;;;;5076496;28;20775;-60
2023/08/23 09:13:22;;;;;;;6.07;3.17;;;27.00;1.00;;;;;;5076175;28;20501;-61
2023/08/23 09:15:51;;;;;;;3.73;3.30;;;27.40;23.10;;;;;;5077027;28;20469;-61
2023/08/23 09:18:19;;;;;;;7.00;4.30;;;27.40;1.00;;;;;;5077202;28;20871;-61
2023/08/23 09:20:47;;;;;;;4.40;3.77;;;27.70;1.00;;;;;;5076545;28;20893;-60
2023/08/23 09:23:15;;;;;;;7.50;3.77;;;28.00;1.00;;;;;;5077017;28;20457;-61
2023/08/23 09:25:43;;;;;;;5.53;3.37;;;27.40;1.00;;;;;;5075169;28;20480;-61
2023/08/23 09:28:13;;;;;;;5.80;3.63;;;27.20;1.00;;;;;;5077232;28;20548;-60
2023/08/23 09:30:40;;;;;;;4.70;3.97;;;27.70;1.00;;;;;;5071536;28;20932;-61
2023/08/23 09:33:11;;;;;;;6.13;3.70;;;27.80;7.90;;;;;;5075533;28;20568;-61
2023/08/23 09:35:48;;;;;;;6.10;3.80;;;28.40;29.90;;;;;;5077170;28;20946;-61
2023/08/23 09:38:19;;;;;;;3.60;3.30;;;28.40;1.00;;;;;;5077234;28;20432;-61
2023/08/23 09:40:49;;;;;;;4.40;4.00;;;28.60;1.00;;;;;;5073551;28;20476;-61
2023/08/23 09:43:17;;;;;;;4.40;3.80;;;28.80;1.00;;;;;;5076936;28;20453;-60
2023/08/23 09:45:45;;;;;;;4.40;3.97;;;29.10;1.00;;;;;;5076642;28;20461;-61
2023/08/23 09:48:14;;;;;;;5.77;4.53;;;29.40;2.60;;;;;;5077005;28;20457;-61
2023/08/23 09:50:41;;;;;;;5.47;3.57;;;28.30;32.00;;;;;;5076112;28;20555;-61
2023/08/23 09:53:19;;;;;;;4.37;3.70;;;28.50;1.00;;;;;;5076425;28;20540;-61
2023/08/23 09:55:49;;;;;;;9.60;5.93;;;28.90;6.20;;;;;;5076808;28;20500;-61
2023/08/23 09:58:16;;;;;;;7.20;4.77;;;28.90;1.00;;;;;;5076858;28;20540;-61
2023/08/23 10:00:47;;;;;;;7.90;4.73;;;28.40;1.00;;;;;;5076948;28;20475;-60
2023/08/23 10:03:15;;;;;;;5.83;5.07;;;28.80;1.00;;;;;;5076378;28;20551;-61
2023/08/23 10:05:43;;;;;;;6.07;4.70;;;28.40;1.00;;;;;;5076418;28;20997;-61
2023/08/23 10:08:11;;;;;;;9.70;5.00;;;28.60;1.00;;;;;;5076982;28;20454;-61
2023/08/23 10:10:42;;;;;;;5.97;4.80;;;28.50;1.00;;;;;;5076829;28;20466;-61
2023/08/23 10:13:11;;;;;;;5.17;4.30;;;28.90;1.00;;;;;;5076824;28;20496;-61
2023/08/23 10:15:40;;;;;;;4.80;4.40;;;28.90;1.00;;;;;;5076392;28;20511;-61
2023/08/23 10:18:11;;;;;;;4.73;3.70;;;29.30;1.00;;;;;;5075806;28;20508;-61
2023/08/23 10:20:39;;;;;;;5.53;4.70;;;29.60;1.00;;;;;;5076392;28;20548;-61
2023/08/23 10:23:13;;;;;;;6.67;4.50;;;30.10;1.00;;;;;;5076169;28;20484;-61
2023/08/23 10:25:42;;;;;;;4.77;3.50;;;30.70;1.00;;;;;;5077640;28;20476;-61
2023/08/23 10:28:13;;;;;;;4.00;3.70;;;30.90;1.00;;;;;;5080335;28;20810;-60
2023/08/23 10:30:43;;;;;;;4.17;3.47;;;30.20;1.00;;;;;;5080459;28;20543;-61
2023/08/23 10:33:12;;;;;;;8.20;4.07;;;30.50;1.00;;;;;;5079629;28;20561;-61
2023/08/23 10:35:40;;;;;;;4.80;3.93;;;30.10;1.00;;;;;;5079372;28;20468;-60
2023/08/23 10:38:09;;;;;;;6.10;5.00;;;30.30;1.00;;;;;;5079414;28;20943;-60
2023/08/23 10:40:38;;;;;;;5.90;4.93;;;30.50;1.00;;;;;;5079622;28;20496;-61
2023/08/23 10:43:14;;;;;;;4.27;3.87;;;30.60;1.00;;;;;;5079909;28;20459;-61
2023/08/23 10:45:52;;;;;;;7.90;3.20;;;31.20;1.00;;;;;;5079619;28;20460;-60
2023/08/23 10:48:20;;;;;;;5.57;4.17;;;31.00;1.00;;;;;;5076899;28;20519;-61
2023/08/23 10:50:48;;;;;;;5.53;4.10;;;31.20;1.00;;;;;;5079751;28;20547;-61
2023/08/23 10:53:17;;;;;;;4.63;3.50;;;30.70;1.00;;;;;;5079748;28;20585;-61
2023/08/23 10:55:45;;;;;;;6.93;4.47;;;30.90;1.00;;;;;;5079906;28;20838;-60
2023/08/23 10:58:13;;;;;;;4.30;3.63;;;30.90;1.00;;;;;;5079561;28;20456;-59
2023/08/23 11:00:42;;;;;;;6.60;3.87;;;30.60;1.00;;;;;;5078231;28;20897;-60
2023/08/23 11:03:09;;;;;;;5.10;3.90;;;30.60;99.90;;;;;;5079030;28;20928;-60
2023/08/23 11:05:37;;;;;;;4.70;3.40;;;30.60;1.00;;;;;;5079401;28;20464;-60
2023/08/23 11:08:05;;;;;;;6.07;4.47;;;30.40;1.00;;;;;;5079226;28;20556;-57
2023/08/23 11:10:32;;;;;;;7.10;4.13;;;29.90;99.90;;;;;;5079531;28;20540;-59
2023/08/23 11:13:00;;;;;;;9.40;5.07;;;29.10;99.90;;;;;;5079235;28;20569;-59
2023/08/23 11:15:29;;;;;;;7.97;4.30;;;28.90;99.90;;;;;;5078219;28;20470;-60
2023/08/23 11:17:57;;;;;;;4.27;3.53;;;28.90;99.90;;;;;;5075257;28;20468;-59
2023/08/23 11:20:24;;;;;;;4.00;3.60;;;28.90;99.90;;;;;;5079792;28;20854;-60
2023/08/23 11:22:51;;;;;;;5.27;4.07;;;28.70;99.90;;;;;;5079152;28;20802;-59
2023/08/23 11:25:19;;;;;;;4.63;3.97;;;29.00;99.90;;;;;;5079297;28;20457;-59
2023/08/23 11:27:46;;;;;;;5.00;3.50;;;29.60;99.90;;;;;;5078832;28;20461;-59
2023/08/23 11:30:14;;;;;;;3.60;3.30;;;30.30;99.90;;;;;;5079600;28;20457;-60
2023/08/23 11:32:44;;;;;;;3.87;2.90;;;30.00;99.90;;;;;;5079365;28;20485;-59
2023/08/23 11:35:12;;;;;;;4.27;3.87;;;30.50;1.00;;;;;;5078305;28;20567;-60
2023/08/23 11:37:39;;;;;;;8.70;4.10;;;31.00;1.00;;;;;;5076665;28;20473;-59
2023/08/23 11:40:10;;;;;;;3.80;3.47;;;30.30;1.00;;;;;;5077265;28;20449;-59
2023/08/23 11:42:38;;;;;;;6.63;4.20;;;30.50;1.00;;;;;;5075627;28;20464;-60
2023/08/23 11:45:06;;;;;;;5.30;4.00;;;31.00;99.90;;;;;;5075945;28;20463;-60
2023/08/23 11:47:36;;;;;;;6.37;4.83;;;31.40;1.00;;;;;;5076855;28;20530;-60
2023/08/23 11:50:07;;;;;;;6.00;4.03;;;31.50;1.00;;;;;;5077400;28;20543;-58
2023/08/23 11:52:34;;;;;;;5.20;4.70;;;31.60;1.00;;;;;;5076609;28;20538;-57
2023/08/23 11:55:03;;;;;;;4.53;4.10;;;31.30;99.90;;;;;;5076852;28;20461;-57
2023/08/23 11:57:33;;;;;;;7.87;4.27;;;30.70;99.90;;;;;;5077206;28;20555;-58
2023/08/23 12:00:00;;;;;;;5.73;5.20;;;30.90;99.90;;;;;;5077385;28;20903;-57
2023/08/23 12:02:28;;;;;;;9.17;5.50;;;30.90;99.90;;;;;;5075596;28;20992;-57
2023/08/23 12:04:56;;;;;;;6.50;4.83;;;31.30;99.90;;;;;;5076432;28;20507;-57
2023/08/23 12:07:24;;;;;;;5.27;4.50;;;31.60;99.90;;;;;;5076649;28;20468;-57
2023/08/23 12:09:52;;;;;;;6.10;5.13;;;32.00;99.90;;;;;;5077034;28;20456;-57
2023/08/23 12:12:19;;;;;;;6.17;5.03;;;32.10;99.90;;;;;;5076745;28;20953;-56
2023/08/23 12:14:46;;;;;;;5.70;5.30;;;31.50;99.90;;;;;;5076446;28;20464;-57
2023/08/23 12:17:14;;;;;;;6.30;5.70;;;31.10;99.90;;;;;;5078449;28;20484;-57
2023/08/23 12:19:41;;;;;;;7.43;6.77;;;31.30;99.90;;;;;;5077543;28;20833;-57
2023/08/23 12:22:10;;;;;;;6.50;6.00;;;31.20;99.90;;;;;;5077826;28;20464;-56
2023/08/23 12:24:39;;;;;;;6.80;6.23;;;31.10;99.90;;;;;;5076548;28;20473;-57
2023/08/23 12:27:06;;;;;;;7.97;7.10;;;30.40;99.90;;;;;;5077222;28;20485;-57
2023/08/23 12:29:33;;;;;;;8.70;8.00;;;30.50;99.90;;;;;;5077461;28;20465;-57
2023/08/23 12:32:00;;;;;;;8.53;7.47;;;30.70;99.90;;;;;;5077950;28;20523;-57
2023/08/23 12:34:29;;;;;;;7.17;6.50;;;30.50;99.90;;;;;;5077556;28;20502;-57
2023/08/23 12:36:56;;;;;;;8.00;5.90;;;31.00;99.90;;;;;;5077769;28;20474;-57
2023/08/23 12:39:23;;;;;;;6.73;6.13;;;31.60;99.90;;;;;;5077153;28;20503;-57
2023/08/23 12:41:52;;;;;;;7.27;6.23;;;31.70;99.90;;;;;;5077411;28;20465;-58
2023/08/23 12:44:19;;;;;;;8.47;6.57;;;31.00;99.90;;;;;;5078221;28;20464;-58
2023/08/23 12:46:46;;;;;;;8.43;7.60;;;30.80;99.90;;;;;;5077668;28;20452;-57
2023/08/23 12:49:14;;;;;;;8.60;7.17;;;31.10;1.00;;;;;;5076904;28;20492;-57
2023/08/23 12:51:41;;;;;;;7.77;6.83;;;31.00;99.90;;;;;;5077632;28;20547;-57